createdAt,value
2018-01-15T00:00:58.057Z,84.10
2018-01-15T00:03:25.792Z,83.00
2018-01-15T00:05:53.463Z,82.30
2018-01-15T00:08:21.159Z,82.20
2018-01-15T00:10:49.737Z,82.10
2018-01-15T00:13:17.397Z,82.00
2018-01-15T00:15:45.061Z,82.30
2018-01-15T00:18:13.641Z,82.80
2018-01-15T00:20:41.544Z,81.80
2018-01-15T00:23:09.205Z,82.10
2018-01-15T00:28:05.705Z,82.50
2018-01-15T00:30:33.382Z,82.10
2018-01-15T00:33:01.119Z,80.80
2018-01-15T00:35:28.781Z,80.70
2018-01-15T00:37:56.441Z,80.80
2018-01-15T00:40:24.138Z,80.80
2018-01-15T00:42:51.791Z,82.20
2018-01-15T00:45:19.441Z,83.20
2018-01-15T00:47:47.556Z,82.70
2018-01-15T00:50:16.096Z,82.80
2018-01-15T00:52:43.770Z,82.70
2018-01-15T00:55:11.509Z,82.00
2018-01-15T00:57:39.317Z,82.10
2018-01-15T01:00:06.970Z,82.00
2018-01-15T01:02:34.681Z,82.40
2018-01-15T01:05:02.790Z,82.20
2018-01-15T01:10:10.098Z,83.00
2018-01-15T01:12:37.759Z,82.70
2018-01-15T01:15:05.411Z,82.10
2018-01-15T01:17:33.136Z,82.00
2018-01-15T01:20:00.802Z,82.70
2018-01-15T01:22:28.471Z,82.80
2018-01-15T01:24:56.612Z,83.00
2018-01-15T01:27:25.049Z,82.80
2018-01-15T01:29:52.742Z,83.10
2018-01-15T01:32:21.745Z,82.40
2018-01-15T01:34:49.822Z,84.20
2018-01-15T01:37:17.512Z,84.20
2018-01-15T01:39:45.240Z,83.50
2018-01-15T01:42:12.926Z,83.00
2018-01-15T01:44:41.077Z,82.70
2018-01-15T01:47:08.796Z,82.90
2018-01-15T01:49:36.466Z,83.00
2018-01-15T01:52:04.138Z,83.70
2018-01-15T01:54:31.852Z,86.00
2018-01-15T01:56:59.510Z,86.10
2018-01-15T01:59:27.173Z,86.80
2018-01-15T02:01:54.894Z,85.20
2018-01-15T02:04:23.080Z,84.70
2018-01-15T02:06:50.743Z,84.70
2018-01-15T02:09:18.458Z,84.40
2018-01-15T02:11:46.095Z,84.20
2018-01-15T02:14:14.536Z,84.20
2018-01-15T02:16:42.264Z,84.60
2018-01-15T02:19:10.482Z,84.30
2018-01-15T02:21:42.242Z,83.80
2018-01-15T02:24:10.400Z,84.10
2018-01-15T02:26:38.579Z,84.30
2018-01-15T02:31:46.704Z,84.00
2018-01-15T02:34:14.369Z,84.30
2018-01-15T02:36:42.479Z,83.80
2018-01-15T02:39:11.010Z,83.90
2018-01-15T02:41:39.856Z,84.00
2018-01-15T02:44:08.495Z,83.50
2018-01-15T02:46:38.132Z,83.50
2018-01-15T02:49:05.796Z,84.00
2018-01-15T02:51:33.470Z,83.80
2018-01-15T02:54:01.216Z,83.50
2018-01-15T02:56:29.377Z,85.00
2018-01-15T02:58:57.043Z,84.50
2018-01-15T03:01:24.767Z,84.20
2018-01-15T03:03:52.415Z,83.10
2018-01-15T03:06:20.067Z,83.20
2018-01-15T03:08:48.166Z,82.30
2018-01-15T03:11:16.343Z,82.90
2018-01-15T03:13:43.996Z,83.20
2018-01-15T03:16:11.714Z,82.50
2018-01-15T03:18:39.379Z,81.70
2018-01-15T03:23:35.612Z,82.40
2018-01-15T03:26:03.272Z,81.80
2018-01-15T03:28:30.935Z,81.60
2018-01-15T03:30:58.712Z,81.60
2018-01-15T03:33:26.394Z,81.00
2018-01-15T03:40:58.331Z,81.20
2018-01-15T03:43:25.993Z,80.50
2018-01-15T03:45:53.706Z,80.30
2018-01-15T03:48:21.367Z,80.60
2018-01-15T03:50:49.157Z,80.80
2018-01-15T03:53:17.520Z,81.90
2018-01-15T03:55:45.173Z,82.90
2018-01-15T03:58:12.836Z,82.60
2018-01-15T04:00:40.567Z,82.00
2018-01-15T04:03:09.044Z,81.80
2018-01-15T04:05:36.698Z,82.00
2018-01-15T04:08:04.428Z,81.80
2018-01-15T04:10:32.070Z,81.60
2018-01-15T04:13:00.241Z,81.60
2018-01-15T04:15:27.957Z,82.40
2018-01-15T04:17:56.072Z,82.90
2018-01-15T04:20:23.764Z,81.70
2018-01-15T04:22:51.461Z,81.50
2018-01-15T04:25:19.112Z,81.60
2018-01-15T04:27:46.775Z,81.20
2018-01-15T04:30:18.575Z,81.80
2018-01-15T04:32:46.229Z,81.70
2018-01-15T04:35:14.190Z,81.70
2018-01-15T04:37:41.908Z,81.70
2018-01-15T04:42:51.996Z,82.70
2018-01-15T04:45:19.668Z,81.70
2018-01-15T04:50:15.425Z,81.00
2018-01-15T04:52:43.081Z,83.00
2018-01-15T04:55:10.738Z,82.80
2018-01-15T04:57:38.459Z,82.30
2018-01-15T05:00:06.100Z,81.60
2018-01-15T05:02:33.764Z,81.20
2018-01-15T05:05:01.475Z,82.70
2018-01-15T05:07:32.779Z,81.90
2018-01-15T05:10:02.448Z,82.60
2018-01-15T05:12:30.095Z,83.40
2018-01-15T05:14:57.756Z,83.90
2018-01-15T05:17:26.408Z,83.40
2018-01-15T05:19:54.069Z,83.50
2018-01-15T05:22:23.117Z,82.30
2018-01-15T05:24:50.843Z,82.60
2018-01-15T05:27:18.580Z,82.00
2018-01-15T05:29:46.143Z,82.10
2018-01-15T05:32:13.859Z,82.40
2018-01-15T05:34:41.982Z,83.10
2018-01-15T05:37:09.631Z,83.40
2018-01-15T05:39:37.851Z,83.60
2018-01-15T05:42:05.531Z,82.80
2018-01-15T05:44:33.226Z,83.00
2018-01-15T05:47:00.933Z,83.00
2018-01-15T05:49:28.602Z,83.20
2018-01-15T05:51:56.276Z,83.30
2018-01-15T05:54:23.990Z,83.70
2018-01-15T05:56:52.178Z,90.40
2018-01-15T05:59:19.822Z,91.70
2018-01-15T06:01:47.518Z,89.90
2018-01-15T06:04:16.209Z,85.50
2018-01-15T06:09:26.051Z,83.70
2018-01-15T06:11:53.759Z,83.40
2018-01-15T06:14:21.429Z,83.10
2018-01-15T06:16:49.530Z,82.30
2018-01-15T06:19:17.268Z,83.00
2018-01-15T06:21:45.394Z,83.60
2018-01-15T06:24:13.052Z,83.00
2018-01-15T06:26:40.784Z,82.80
2018-01-15T06:29:08.977Z,83.30
2018-01-15T06:31:36.646Z,83.20
2018-01-15T06:34:04.358Z,83.30
2018-01-15T06:36:32.006Z,83.10
2018-01-15T06:38:59.652Z,83.60
2018-01-15T06:41:27.796Z,84.60
2018-01-15T06:43:55.491Z,84.50
2018-01-15T06:46:23.128Z,84.00
2018-01-15T06:48:51.346Z,83.80
2018-01-15T06:51:19.006Z,84.30
2018-01-15T06:53:49.108Z,84.00
2018-01-15T06:56:16.833Z,83.80
2018-01-15T06:58:44.524Z,86.10
2018-01-15T07:01:12.449Z,87.60
2018-01-15T07:06:07.794Z,88.70
2018-01-15T07:08:36.545Z,87.70
2018-01-15T07:11:05.211Z,87.40
2018-01-15T07:13:32.870Z,87.50
2018-01-15T07:16:00.540Z,87.60
2018-01-15T07:20:55.889Z,87.40
2018-01-15T07:23:23.563Z,86.50
2018-01-15T07:28:31.758Z,86.20
2018-01-15T07:30:59.454Z,85.90
2018-01-15T07:33:27.406Z,85.80
2018-01-15T07:35:59.788Z,85.70
2018-01-15T07:38:24.797Z,86.10
2018-01-15T07:40:52.453Z,86.60
2018-01-15T07:43:20.402Z,86.90
2018-01-15T07:45:48.120Z,87.00
2018-01-15T07:48:15.788Z,86.20
2018-01-15T07:50:43.426Z,85.80
2018-01-15T07:53:11.127Z,86.20
2018-01-15T07:58:06.442Z,87.40
2018-01-15T08:00:34.132Z,87.40
2018-01-15T08:03:01.821Z,86.70
2018-01-15T08:05:29.472Z,85.50
2018-01-15T08:07:57.620Z,84.00
2018-01-15T08:10:25.280Z,83.60
2018-01-15T08:12:53.447Z,83.60
2018-01-15T08:15:21.169Z,83.80
2018-01-15T08:17:48.839Z,83.90
2018-01-15T08:20:17.746Z,83.60
2018-01-15T08:25:13.644Z,85.80
2018-01-15T08:27:41.571Z,86.00
2018-01-15T08:30:09.333Z,83.30
2018-01-15T08:32:36.992Z,82.80
2018-01-15T08:35:04.659Z,81.70
2018-01-15T08:37:32.369Z,79.60
2018-01-15T08:42:41.154Z,73.70
2018-01-15T08:45:08.791Z,72.00
2018-01-15T08:47:36.433Z,71.40
2018-01-15T08:50:04.130Z,66.60
2018-01-15T08:52:31.769Z,69.90
2018-01-15T08:54:59.455Z,67.90
2018-01-15T08:57:27.103Z,68.40
2018-01-15T08:59:54.748Z,67.40
2018-01-15T09:02:23.386Z,62.80
2018-01-15T09:04:51.066Z,58.80
2018-01-15T09:07:18.686Z,57.30
2018-01-15T09:09:46.357Z,60.10
2018-01-15T09:12:14.045Z,57.00
2018-01-15T09:14:41.687Z,53.40
2018-01-15T09:17:09.340Z,51.70
2018-01-15T09:27:21.731Z,60.80
2018-01-15T09:29:50.851Z,60.30
2018-01-15T09:34:58.238Z,54.50
2018-01-15T09:40:03.698Z,53.50
2018-01-15T09:42:36.571Z,49.90
2018-01-15T09:45:08.341Z,50.10
2018-01-15T09:47:39.261Z,49.60
2018-01-15T09:50:11.123Z,49.20
2018-01-15T09:52:41.767Z,48.10
2018-01-15T09:57:47.112Z,47.00
2018-01-15T10:00:18.966Z,46.20
2018-01-15T10:05:25.157Z,46.30
2018-01-15T10:13:13.045Z,44.20
2018-01-15T10:15:46.710Z,42.50
2018-01-15T10:18:17.457Z,39.30
2018-01-15T10:20:49.306Z,40.50
2018-01-15T10:23:20.065Z,40.40
2018-01-15T10:25:51.806Z,39.40
2018-01-15T10:30:56.121Z,39.50
2018-01-15T10:33:26.907Z,38.60
2018-01-15T10:43:32.210Z,39.40
2018-01-15T10:45:59.904Z,41.80
2018-01-15T10:48:27.546Z,41.30
2018-01-15T10:50:55.195Z,40.80
2018-01-15T10:53:23.272Z,38.00
2018-01-15T10:55:50.903Z,38.90
2018-01-15T10:58:18.546Z,37.80
2018-01-15T11:00:52.021Z,36.40
2018-01-15T11:03:20.224Z,36.60
2018-01-15T11:05:47.856Z,35.40
2018-01-15T11:08:15.930Z,37.10
2018-01-15T11:10:43.569Z,36.60
2018-01-15T11:13:11.212Z,35.50
2018-01-15T11:15:38.909Z,34.30
2018-01-15T11:18:06.557Z,35.40
2018-01-15T11:20:34.557Z,35.70
2018-01-15T11:23:02.639Z,36.10
2018-01-15T11:25:30.281Z,36.90
2018-01-15T11:27:57.908Z,33.50
2018-01-15T11:30:25.601Z,35.60
2018-01-15T11:35:20.876Z,37.20
2018-01-15T11:40:27.993Z,34.70
2018-01-15T11:42:55.694Z,33.70
2018-01-15T11:45:23.318Z,33.10
2018-01-15T11:47:50.944Z,32.70
2018-01-15T11:50:18.633Z,32.30
2018-01-15T11:52:46.269Z,32.50
2018-01-15T11:55:13.897Z,31.40
2018-01-15T11:57:41.589Z,31.60
2018-01-15T12:00:09.234Z,31.50
2018-01-15T12:02:36.884Z,30.00
2018-01-15T12:05:04.581Z,29.40
2018-01-15T12:07:32.207Z,28.80
2018-01-15T12:09:59.846Z,30.10
2018-01-15T12:12:27.553Z,31.00
2018-01-15T12:14:55.196Z,31.30
2018-01-15T12:17:22.848Z,30.90
2018-01-15T12:19:50.947Z,29.00
2018-01-15T12:22:18.590Z,29.20
2018-01-15T12:24:46.219Z,29.50
2018-01-15T12:27:14.315Z,29.80
2018-01-15T12:29:41.955Z,30.90
2018-01-15T12:32:10.087Z,29.00
2018-01-15T12:34:37.742Z,28.70
2018-01-15T12:37:05.371Z,29.40
2018-01-15T12:39:33.005Z,26.70
2018-01-15T12:42:00.704Z,28.10
2018-01-15T12:44:28.336Z,25.80
2018-01-15T12:46:56.798Z,26.80
2018-01-15T12:49:24.486Z,27.50
2018-01-15T12:51:52.118Z,27.60
2018-01-15T12:54:20.729Z,28.10
2018-01-15T12:56:48.439Z,28.70
2018-01-15T12:59:16.063Z,28.00
2018-01-15T13:04:22.838Z,28.20
2018-01-15T13:06:56.312Z,27.00
2018-01-15T13:09:23.978Z,27.90
2018-01-15T13:11:51.616Z,30.20
2018-01-15T13:14:19.248Z,30.10
2018-01-15T13:16:46.944Z,31.10
2018-01-15T13:19:14.581Z,32.60
2018-01-15T13:21:42.199Z,33.20
2018-01-15T13:24:09.886Z,33.00
2018-01-15T13:26:37.508Z,31.30
2018-01-15T13:29:05.149Z,31.60
2018-01-15T13:31:32.840Z,29.10
2018-01-15T13:34:00.499Z,29.80
2018-01-15T13:36:28.125Z,28.90
2018-01-15T13:38:55.807Z,30.10
2018-01-15T13:41:23.429Z,31.30
2018-01-15T13:43:51.051Z,32.70
2018-01-15T13:46:18.749Z,30.50
2018-01-15T13:48:46.366Z,31.80
2018-01-15T13:51:13.993Z,30.90
2018-01-15T13:53:41.684Z,32.00
2018-01-15T13:56:09.363Z,32.40
2018-01-15T13:58:36.979Z,31.00
2018-01-15T14:01:04.670Z,32.90
2018-01-15T14:03:33.114Z,32.40
2018-01-15T14:06:00.742Z,30.80
2018-01-15T14:08:28.439Z,31.30
2018-01-15T14:10:56.070Z,32.40
2018-01-15T14:13:24.568Z,33.00
2018-01-15T14:15:52.252Z,33.90
2018-01-15T14:18:19.886Z,34.40
2018-01-15T14:23:15.208Z,35.20
2018-01-15T14:25:42.845Z,36.00
2018-01-15T14:28:10.514Z,36.50
2018-01-15T14:30:39.127Z,36.70
2018-01-15T14:35:47.926Z,37.00
2018-01-15T14:38:15.565Z,37.10
2018-01-15T14:40:43.196Z,37.50
2018-01-15T14:43:10.912Z,37.70
2018-01-15T14:45:39.007Z,38.30
2018-01-15T14:48:06.646Z,38.80
2018-01-15T14:50:34.338Z,38.80
2018-01-15T14:53:01.965Z,39.30
2018-01-15T14:55:30.592Z,40.20
2018-01-15T14:57:58.286Z,40.00
2018-01-15T15:00:25.922Z,39.60
2018-01-15T15:02:53.551Z,39.50
2018-01-15T15:05:22.182Z,37.90
2018-01-15T15:07:49.816Z,38.20
2018-01-15T15:10:17.465Z,37.00
2018-01-15T15:12:45.147Z,38.50
2018-01-15T15:15:12.795Z,37.80
2018-01-15T15:17:40.435Z,36.40
2018-01-15T15:20:08.523Z,37.80
2018-01-15T15:22:36.487Z,36.40
2018-01-15T15:25:04.649Z,37.30
2018-01-15T15:27:32.350Z,38.10
2018-01-15T15:29:59.990Z,40.30
2018-01-15T15:32:27.614Z,40.90
2018-01-15T15:34:56.169Z,40.30
2018-01-15T15:37:23.810Z,41.10
2018-01-15T15:39:52.202Z,41.60
2018-01-15T15:42:19.893Z,39.50
2018-01-15T15:44:48.459Z,40.80
2018-01-15T15:47:16.089Z,40.70
2018-01-15T15:49:43.774Z,37.80
2018-01-15T15:52:11.398Z,40.80
2018-01-15T15:54:39.040Z,41.30
2018-01-15T15:57:06.735Z,41.90
2018-01-15T15:59:34.381Z,43.50
2018-01-15T16:04:41.165Z,45.10
2018-01-15T16:07:08.789Z,42.30
2018-01-15T16:12:05.066Z,40.80
2018-01-15T16:14:32.675Z,39.20
2018-01-15T16:19:28.022Z,39.30
2018-01-15T16:22:07.409Z,40.00
2018-01-15T16:24:35.101Z,39.20
2018-01-15T16:29:30.979Z,42.20
2018-01-15T16:31:58.659Z,42.70
2018-01-15T16:34:27.236Z,45.10
2018-01-15T16:36:54.869Z,44.40
2018-01-15T16:39:22.571Z,45.70
2018-01-15T16:41:50.201Z,44.20
2018-01-15T16:44:18.656Z,43.90
2018-01-15T16:46:47.309Z,44.20
2018-01-15T16:49:14.954Z,45.90
2018-01-15T16:51:42.598Z,46.80
2018-01-15T16:54:10.294Z,46.70
2018-01-15T16:56:37.938Z,46.20
2018-01-15T16:59:05.573Z,45.90
2018-01-15T17:01:33.286Z,44.70
2018-01-15T17:04:00.919Z,42.80
2018-01-15T17:06:28.551Z,42.50
2018-01-15T17:08:56.251Z,43.70
2018-01-15T17:11:25.321Z,43.60
2018-01-15T17:13:53.571Z,44.30
2018-01-15T17:16:21.227Z,41.90
2018-01-15T17:18:48.874Z,44.30
2018-01-15T17:21:16.518Z,42.20
2018-01-15T17:23:44.202Z,41.60
2018-01-15T17:26:12.132Z,39.80
2018-01-15T17:31:20.976Z,37.20
2018-01-15T17:33:50.656Z,36.50
2018-01-15T17:36:18.279Z,36.50
2018-01-15T17:38:46.571Z,38.50
2018-01-15T17:41:14.064Z,40.10
2018-01-15T17:43:41.714Z,38.90
2018-01-15T17:46:09.410Z,37.80
2018-01-15T17:51:05.058Z,36.70
2018-01-15T17:53:32.775Z,38.10
2018-01-15T17:56:00.678Z,41.30
2018-01-15T17:58:28.346Z,41.50
2018-01-15T18:00:56.037Z,40.90
2018-01-15T18:03:26.062Z,37.40
2018-01-15T18:05:53.709Z,42.30
2018-01-15T18:08:21.786Z,44.30
2018-01-15T18:10:49.407Z,45.20
2018-01-15T18:13:17.055Z,43.80
2018-01-15T18:15:44.779Z,37.80
2018-01-15T18:18:13.220Z,42.00
2018-01-15T18:20:40.854Z,44.70
2018-01-15T18:25:37.103Z,44.30
2018-01-15T18:28:04.771Z,42.40
2018-01-15T18:30:33.553Z,46.30
2018-01-15T18:33:02.222Z,46.20
2018-01-15T18:35:29.841Z,45.80
2018-01-15T18:37:57.532Z,42.00
2018-01-15T18:40:26.070Z,45.30
2018-01-15T18:42:53.740Z,47.20
2018-01-15T18:45:21.553Z,46.70
2018-01-15T18:47:49.150Z,45.50
2018-01-15T18:50:17.792Z,53.30
2018-01-15T18:52:45.526Z,50.00
2018-01-15T18:57:49.800Z,42.20
2018-01-15T19:00:17.439Z,41.00
2018-01-15T19:02:46.460Z,37.50
2018-01-15T19:05:14.406Z,40.50
2018-01-15T19:10:09.728Z,39.50
2018-01-15T19:12:37.466Z,39.00
2018-01-15T19:15:05.111Z,41.40
2018-01-15T19:17:32.752Z,40.30
2018-01-15T19:20:03.405Z,40.50
2018-01-15T19:22:31.081Z,39.30
2018-01-15T19:24:58.722Z,38.40
2018-01-15T19:27:26.419Z,38.30
2018-01-15T19:32:21.683Z,38.60
2018-01-15T19:34:55.099Z,39.00
2018-01-15T19:40:04.426Z,38.00
2018-01-15T19:42:32.039Z,37.10
2018-01-15T19:45:05.279Z,37.40
2018-01-15T19:47:38.468Z,37.30
2018-01-15T19:50:11.888Z,37.00
2018-01-15T19:52:45.253Z,36.70
2018-01-15T19:55:18.480Z,37.20
2018-01-15T19:57:51.723Z,36.20
2018-01-15T20:00:25.125Z,37.10
2018-01-15T20:05:45.121Z,37.00
2018-01-15T20:08:18.379Z,37.60
2018-01-15T20:13:28.656Z,37.50
2018-01-15T20:15:56.385Z,37.70
2018-01-15T20:18:24.038Z,37.80
2018-01-15T20:20:51.697Z,37.80
2018-01-15T20:23:19.401Z,37.90
2018-01-15T20:25:47.024Z,38.00
2018-01-15T20:28:14.732Z,38.00
2018-01-15T20:30:42.465Z,37.60
2018-01-15T20:33:10.115Z,38.10
2018-01-15T20:35:37.946Z,37.80
2018-01-15T20:38:05.793Z,38.40
2018-01-15T20:40:33.506Z,38.70
2018-01-15T20:43:01.155Z,38.70
2018-01-15T20:45:29.065Z,38.20
2018-01-15T20:47:56.668Z,39.30
2018-01-15T20:50:24.303Z,39.30
2018-01-15T20:52:51.985Z,39.30
2018-01-15T20:55:20.623Z,39.70
2018-01-15T20:57:51.682Z,39.60
2018-01-15T21:03:18.479Z,39.00
2018-01-15T21:05:45.065Z,38.20
2018-01-15T21:08:12.784Z,38.10
2018-01-15T21:10:40.470Z,38.40
2018-01-15T21:13:08.840Z,38.50
2018-01-15T21:15:45.772Z,39.90
2018-01-15T21:18:12.262Z,37.70
2018-01-15T21:20:39.926Z,38.90
2018-01-15T21:23:07.669Z,38.00
2018-01-15T21:25:35.307Z,37.90
2018-01-15T21:28:02.935Z,38.20
2018-01-15T21:30:30.622Z,37.80
2018-01-15T21:32:58.248Z,39.30
2018-01-15T21:35:25.914Z,37.80
2018-01-15T21:40:32.668Z,38.40
2018-01-15T21:43:00.345Z,37.40
2018-01-15T21:45:27.969Z,38.10
2018-01-15T21:47:55.604Z,38.50
2018-01-15T21:50:23.291Z,38.10
2018-01-15T21:52:50.914Z,37.90
2018-01-15T21:55:18.544Z,38.50
2018-01-15T21:57:46.218Z,38.20
2018-01-15T22:00:13.838Z,37.90
2018-01-15T22:02:41.470Z,39.20
2018-01-15T22:05:10.486Z,39.90
2018-01-15T22:07:38.095Z,39.90
2018-01-15T22:10:05.734Z,39.80
2018-01-15T22:12:33.419Z,39.10
2018-01-15T22:15:01.040Z,40.70
2018-01-15T22:17:29.031Z,40.60
2018-01-15T22:19:56.361Z,40.60
2018-01-15T22:22:23.992Z,40.50
2018-01-15T22:24:52.425Z,39.60
2018-01-15T22:27:20.095Z,39.80
2018-01-15T22:29:47.715Z,39.10
2018-01-15T22:32:15.824Z,39.00
2018-01-15T22:34:43.507Z,52.00
2018-01-15T22:37:11.141Z,53.40
2018-01-15T22:39:38.760Z,41.80
2018-01-15T22:42:06.464Z,38.80
2018-01-15T22:44:34.081Z,37.90
2018-01-15T22:47:02.155Z,38.10
2018-01-15T22:49:29.835Z,37.90
2018-01-15T22:51:57.460Z,38.60
2018-01-15T22:54:25.093Z,38.90
2018-01-15T22:56:52.774Z,37.90
2018-01-15T22:59:20.407Z,38.30
2018-01-15T23:01:48.034Z,38.30
2018-01-15T23:04:15.747Z,38.50
2018-01-15T23:09:24.183Z,38.60
2018-01-15T23:11:52.547Z,38.40
2018-01-15T23:14:20.687Z,38.40
2018-01-15T23:16:51.871Z,38.60
2018-01-15T23:19:20.689Z,38.60
2018-01-15T23:24:26.611Z,38.10
2018-01-15T23:26:54.244Z,38.40
2018-01-15T23:29:26.336Z,37.50
2018-01-15T23:31:53.639Z,38.30
2018-01-15T23:34:21.262Z,37.80
2018-01-15T23:36:49.713Z,38.60
2018-01-15T23:39:17.539Z,38.00
2018-01-15T23:41:45.169Z,39.10
2018-01-15T23:44:13.647Z,38.40
2018-01-15T23:46:41.330Z,38.70
2018-01-15T23:49:08.955Z,38.10
2018-01-15T23:51:36.583Z,38.20
2018-01-15T23:54:04.276Z,39.30
2018-01-15T23:56:31.894Z,43.10
